LFSB Airport Information

Runway Information
Runway 08 Length 5969 ft width 197 ft
Elevation 881 ft Threshold 0 ft Heading 77
Runway 26 Length 5969 ft Width 197 ft
Elevation 884 ft Threshold 722 ft Heading 257
Runway 15 Length 12795 ft width 197 ft
Elevation 865 ft Threshold 0 ft Heading 155
Runway 33 Length 12795 ft Width 197 ft
Elevation 882 ft Threshold 0 ft Heading 335
Airport Frequencies
Type A/D Name APP Frequency 118.575 MHZ
Type ATIS Name ATIS Frequency 127.875 MHZ
Type GND Name GND Frequency 121.6 MHZ
Type INFO Name INFO Frequency 121.25 MHZ
Type PFLT Name PREFLIGHT Frequency 120.5 MHZ
Type TWR Name TWR Frequency 118.3 MHZ
Airport Navaids
Type VOR-DME Name Bale Mulhouse Frequency 117450 KHZ
Type NDB Name Bale Mulhouse Frequency 353 KHZ
Airport Weather Information & NOTAM
ADDS - METARS form results

(1527 UTC 21 September 2019)
Data provider http://aviationweather.gov/metar/data/
 
METAR text: LFSB 211500Z 36005KT 320V040 CAVOK 24/10 Q1016 NOSIG
Conditions at: LFSB (BALE/MULHOUSE , FR) observed 1500 UTC 21 September 2019
Temperature: 24.0°C (75°F)
Dewpoint: 10.0°C (50°F) [RH = 41%]
Pressure (altimeter): 30.00 inches Hg (1016.0 mb)
Winds: from the N (360 degrees) at 6 MPH (5 knots; 2.6 m/s)
Visibility: 6 or more miles (10+ km)
Ceiling: ceiling and visibility are OK
Clouds: unknown
Weather: no significant weather observed at this time

METAR text: LFSB 211430Z 03005KT 350V070 CAVOK 25/11 Q1016 NOSIG
Conditions at: LFSB (BALE/MULHOUSE , FR) observed 1430 UTC 21 September 2019
Temperature: 25.0°C (77°F)
Dewpoint: 11.0°C (52°F) [RH = 41%]
Pressure (altimeter): 30.00 inches Hg (1016.0 mb)
Winds: from the NNE (30 degrees) at 6 MPH (5 knots; 2.6 m/s)
Visibility: 6 or more miles (10+ km)
Ceiling: ceiling and visibility are OK
Clouds: unknown
Weather: no significant weather observed at this time

Forecast for: LFSB (BALE/MULHOUSE , FR)
Text: TAF LFSB 211100Z 2112/2212 01006KT CAVOK
Forecast period: 1200 UTC 21 September 2019 to 1200 UTC 22 September 2019
Forecast type: FROM: standard forecast or significant change
Winds: from the N (10 degrees) at 7 MPH (6 knots; 3.1 m/s)
Visibility: 6 or more miles 10+ km)
Ceiling: unknown
Clouds: missing
Weather: NSW  (no significant weather)